sensor_id;sensor_type;location;lat;lon;timestamp;P1;durP1;ratioP1;P2;durP2;ratioP2
21032;SDS011;10675;47.976;7.824;2024-01-15T00:01:12;17.80;;;7.23;;
21032;SDS011;10675;47.976;7.824;2024-01-15T00:03:37;18.03;;;8.73;;
21032;SDS011;10675;47.976;7.824;2024-01-15T00:06:03;20.63;;;8.20;;
21032;SDS011;10675;47.976;7.824;2024-01-15T00:08:29;20.40;;;8.57;;
21032;SDS011;10675;47.976;7.824;2024-01-15T00:10:54;16.67;;;7.90;;
21032;SDS011;10675;47.976;7.824;2024-01-15T00:13:20;19.70;;;8.17;;
21032;SDS011;10675;47.976;7.824;2024-01-15T00:15:45;13.03;;;7.60;;
21032;SDS011;10675;47.976;7.824;2024-01-15T00:18:11;11.47;;;7.03;;
21032;SDS011;10675;47.976;7.824;2024-01-15T00:20:36;17.20;;;8.17;;
21032;SDS011;10675;47.976;7.824;2024-01-15T00:23:02;23.13;;;8.30;;
21032;SDS011;10675;47.976;7.824;2024-01-15T00:25:27;17.30;;;6.67;;
21032;SDS011;10675;47.976;7.824;2024-01-15T00:27:53;17.93;;;7.37;;
21032;SDS011;10675;47.976;7.824;2024-01-15T00:30:18;18.93;;;7.77;;
21032;SDS011;10675;47.976;7.824;2024-01-15T00:32:44;16.50;;;7.83;;
21032;SDS011;10675;47.976;7.824;2024-01-15T00:35:09;14.70;;;7.57;;
21032;SDS011;10675;47.976;7.824;2024-01-15T00:37:35;19.30;;;7.40;;
21032;SDS011;10675;47.976;7.824;2024-01-15T00:40:01;17.67;;;6.93;;
21032;SDS011;10675;47.976;7.824;2024-01-15T00:42:26;20.20;;;8.30;;
21032;SDS011;10675;47.976;7.824;2024-01-15T00:44:52;21.90;;;7.77;;
21032;SDS011;10675;47.976;7.824;2024-01-15T00:47:19;17.57;;;7.20;;
21032;SDS011;10675;47.976;7.824;2024-01-15T00:49:44;15.93;;;7.07;;
21032;SDS011;10675;47.976;7.824;2024-01-15T00:52:10;15.40;;;7.20;;
21032;SDS011;10675;47.976;7.824;2024-01-15T00:54:35;14.20;;;7.80;;
21032;SDS011;10675;47.976;7.824;2024-01-15T00:57:01;17.93;;;7.93;;
21032;SDS011;10675;47.976;7.824;2024-01-15T00:59:26;24.40;;;8.63;;
21032;SDS011;10675;47.976;7.824;2024-01-15T01:01:52;19.47;;;7.90;;
21032;SDS011;10675;47.976;7.824;2024-01-15T01:04:17;22.13;;;7.50;;
21032;SDS011;10675;47.976;7.824;2024-01-15T01:06:43;16.60;;;7.20;;
21032;SDS011;10675;47.976;7.824;2024-01-15T01:09:08;17.13;;;7.37;;
21032;SDS011;10675;47.976;7.824;2024-01-15T01:11:34;21.33;;;8.47;;
21032;SDS011;10675;47.976;7.824;2024-01-15T01:13:59;17.90;;;6.67;;
21032;SDS011;10675;47.976;7.824;2024-01-15T01:16:26;18.37;;;7.20;;
21032;SDS011;10675;47.976;7.824;2024-01-15T01:18:52;16.93;;;7.43;;
21032;SDS011;10675;47.976;7.824;2024-01-15T01:21:18;17.90;;;7.20;;
21032;SDS011;10675;47.976;7.824;2024-01-15T01:23:43;15.40;;;6.70;;
21032;SDS011;10675;47.976;7.824;2024-01-15T01:26:09;18.77;;;7.83;;
21032;SDS011;10675;47.976;7.824;2024-01-15T01:28:34;15.20;;;6.97;;
21032;SDS011;10675;47.976;7.824;2024-01-15T01:31:00;17.37;;;7.67;;
21032;SDS011;10675;47.976;7.824;2024-01-15T01:33:25;14.40;;;6.33;;
21032;SDS011;10675;47.976;7.824;2024-01-15T01:35:51;13.60;;;6.87;;
21032;SDS011;10675;47.976;7.824;2024-01-15T01:38:16;10.47;;;6.33;;
21032;SDS011;10675;47.976;7.824;2024-01-15T01:40:42;13.00;;;5.70;;
21032;SDS011;10675;47.976;7.824;2024-01-15T01:43:08;16.27;;;6.40;;
21032;SDS011;10675;47.976;7.824;2024-01-15T01:45:35;14.20;;;5.73;;
21032;SDS011;10675;47.976;7.824;2024-01-15T01:48:01;13.23;;;5.23;;
21032;SDS011;10675;47.976;7.824;2024-01-15T01:50:27;9.27;;;5.33;;
21032;SDS011;10675;47.976;7.824;2024-01-15T01:52:54;13.80;;;5.20;;
21032;SDS011;10675;47.976;7.824;2024-01-15T01:55:21;12.60;;;5.80;;
21032;SDS011;10675;47.976;7.824;2024-01-15T01:57:49;11.47;;;5.03;;
21032;SDS011;10675;47.976;7.824;2024-01-15T02:00:15;14.10;;;5.43;;
21032;SDS011;10675;47.976;7.824;2024-01-15T02:02:41;11.67;;;5.17;;
21032;SDS011;10675;47.976;7.824;2024-01-15T02:05:07;11.60;;;5.17;;
21032;SDS011;10675;47.976;7.824;2024-01-15T02:07:34;11.33;;;4.70;;
21032;SDS011;10675;47.976;7.824;2024-01-15T02:10:00;13.20;;;4.87;;
21032;SDS011;10675;47.976;7.824;2024-01-15T02:12:26;9.30;;;4.73;;
21032;SDS011;10675;47.976;7.824;2024-01-15T02:14:51;13.77;;;5.73;;
21032;SDS011;10675;47.976;7.824;2024-01-15T02:17:17;14.60;;;5.60;;
21032;SDS011;10675;47.976;7.824;2024-01-15T02:19:43;13.23;;;5.80;;
21032;SDS011;10675;47.976;7.824;2024-01-15T02:22:08;12.60;;;5.93;;
21032;SDS011;10675;47.976;7.824;2024-01-15T02:24:34;18.63;;;7.43;;
21032;SDS011;10675;47.976;7.824;2024-01-15T02:26:59;17.40;;;7.80;;
21032;SDS011;10675;47.976;7.824;2024-01-15T02:29:25;17.73;;;8.07;;
21032;SDS011;10675;47.976;7.824;2024-01-15T02:31:51;17.63;;;7.03;;
21032;SDS011;10675;47.976;7.824;2024-01-15T02:34:16;21.77;;;7.30;;
21032;SDS011;10675;47.976;7.824;2024-01-15T02:36:42;16.03;;;7.13;;
21032;SDS011;10675;47.976;7.824;2024-01-15T02:39:07;15.97;;;8.13;;
21032;SDS011;10675;47.976;7.824;2024-01-15T02:41:33;13.47;;;6.40;;
21032;SDS011;10675;47.976;7.824;2024-01-15T02:43:59;17.20;;;7.07;;
21032;SDS011;10675;47.976;7.824;2024-01-15T02:46:24;18.63;;;7.53;;
21032;SDS011;10675;47.976;7.824;2024-01-15T02:48:50;21.20;;;7.80;;
21032;SDS011;10675;47.976;7.824;2024-01-15T02:51:15;19.87;;;7.83;;
21032;SDS011;10675;47.976;7.824;2024-01-15T02:53:41;19.40;;;7.40;;
21032;SDS011;10675;47.976;7.824;2024-01-15T02:56:07;16.73;;;7.40;;
21032;SDS011;10675;47.976;7.824;2024-01-15T02:58:32;18.90;;;8.37;;
21032;SDS011;10675;47.976;7.824;2024-01-15T03:00:58;18.27;;;7.87;;
21032;SDS011;10675;47.976;7.824;2024-01-15T03:03:24;24.57;;;8.53;;
21032;SDS011;10675;47.976;7.824;2024-01-15T03:05:49;20.03;;;8.23;;
21032;SDS011;10675;47.976;7.824;2024-01-15T03:08:15;17.00;;;7.10;;
21032;SDS011;10675;47.976;7.824;2024-01-15T03:10:40;15.27;;;6.17;;
21032;SDS011;10675;47.976;7.824;2024-01-15T03:13:06;14.37;;;7.83;;
21032;SDS011;10675;47.976;7.824;2024-01-15T03:15:31;16.77;;;6.67;;
21032;SDS011;10675;47.976;7.824;2024-01-15T03:17:57;18.00;;;7.73;;
21032;SDS011;10675;47.976;7.824;2024-01-15T03:20:22;16.70;;;7.27;;
21032;SDS011;10675;47.976;7.824;2024-01-15T03:22:48;17.20;;;7.47;;
21032;SDS011;10675;47.976;7.824;2024-01-15T03:25:14;13.37;;;6.37;;
21032;SDS011;10675;47.976;7.824;2024-01-15T03:27:39;21.40;;;7.60;;
21032;SDS011;10675;47.976;7.824;2024-01-15T03:30:05;17.67;;;7.57;;
21032;SDS011;10675;47.976;7.824;2024-01-15T03:32:31;16.10;;;6.37;;
21032;SDS011;10675;47.976;7.824;2024-01-15T03:34:57;16.37;;;7.90;;
21032;SDS011;10675;47.976;7.824;2024-01-15T03:37:22;16.60;;;6.40;;
21032;SDS011;10675;47.976;7.824;2024-01-15T03:39:48;18.27;;;7.40;;
21032;SDS011;10675;47.976;7.824;2024-01-15T03:42:13;16.53;;;7.03;;
21032;SDS011;10675;47.976;7.824;2024-01-15T03:44:39;17.93;;;8.17;;
21032;SDS011;10675;47.976;7.824;2024-01-15T03:47:05;17.03;;;6.93;;
21032;SDS011;10675;47.976;7.824;2024-01-15T03:49:30;15.83;;;7.13;;
21032;SDS011;10675;47.976;7.824;2024-01-15T03:51:56;24.60;;;9.20;;
21032;SDS011;10675;47.976;7.824;2024-01-15T03:54:21;21.60;;;7.67;;
21032;SDS011;10675;47.976;7.824;2024-01-15T03:56:47;19.40;;;8.73;;
21032;SDS011;10675;47.976;7.824;2024-01-15T03:59:12;17.77;;;7.43;;
21032;SDS011;10675;47.976;7.824;2024-01-15T04:01:38;17.83;;;8.07;;
21032;SDS011;10675;47.976;7.824;2024-01-15T04:04:03;15.20;;;7.30;;
21032;SDS011;10675;47.976;7.824;2024-01-15T04:06:29;19.13;;;7.30;;
21032;SDS011;10675;47.976;7.824;2024-01-15T04:08:54;18.00;;;7.83;;
21032;SDS011;10675;47.976;7.824;2024-01-15T04:11:20;20.10;;;7.73;;
21032;SDS011;10675;47.976;7.824;2024-01-15T04:13:47;20.13;;;8.27;;
21032;SDS011;10675;47.976;7.824;2024-01-15T04:16:13;16.73;;;8.87;;
21032;SDS011;10675;47.976;7.824;2024-01-15T04:18:38;19.70;;;8.50;;
21032;SDS011;10675;47.976;7.824;2024-01-15T04:21:05;18.93;;;8.53;;
21032;SDS011;10675;47.976;7.824;2024-01-15T04:23:32;19.50;;;8.93;;
21032;SDS011;10675;47.976;7.824;2024-01-15T04:25:57;21.63;;;9.27;;
21032;SDS011;10675;47.976;7.824;2024-01-15T04:28:23;20.67;;;8.27;;
21032;SDS011;10675;47.976;7.824;2024-01-15T04:30:48;25.53;;;8.77;;
21032;SDS011;10675;47.976;7.824;2024-01-15T04:33:14;22.63;;;9.40;;
21032;SDS011;10675;47.976;7.824;2024-01-15T04:35:40;21.37;;;8.60;;
21032;SDS011;10675;47.976;7.824;2024-01-15T04:38:05;16.53;;;7.93;;
21032;SDS011;10675;47.976;7.824;2024-01-15T04:40:31;19.40;;;6.93;;
21032;SDS011;10675;47.976;7.824;2024-01-15T04:42:57;18.97;;;8.20;;
21032;SDS011;10675;47.976;7.824;2024-01-15T04:45:22;18.20;;;8.20;;
21032;SDS011;10675;47.976;7.824;2024-01-15T04:47:53;14.67;;;7.67;;
21032;SDS011;10675;47.976;7.824;2024-01-15T04:50:18;24.43;;;8.93;;
21032;SDS011;10675;47.976;7.824;2024-01-15T04:52:44;15.63;;;7.20;;
21032;SDS011;10675;47.976;7.824;2024-01-15T04:55:09;20.80;;;9.27;;
21032;SDS011;10675;47.976;7.824;2024-01-15T04:57:35;22.40;;;8.73;;
21032;SDS011;10675;47.976;7.824;2024-01-15T05:00:00;28.13;;;10.97;;
21032;SDS011;10675;47.976;7.824;2024-01-15T05:02:26;19.97;;;8.47;;
21032;SDS011;10675;47.976;7.824;2024-01-15T05:04:51;16.90;;;7.27;;
21032;SDS011;10675;47.976;7.824;2024-01-15T05:07:17;24.07;;;9.03;;
21032;SDS011;10675;47.976;7.824;2024-01-15T05:09:42;20.23;;;8.23;;
21032;SDS011;10675;47.976;7.824;2024-01-15T05:12:08;19.30;;;8.17;;
21032;SDS011;10675;47.976;7.824;2024-01-15T05:14:33;22.67;;;8.77;;
21032;SDS011;10675;47.976;7.824;2024-01-15T05:16:59;22.83;;;8.80;;
21032;SDS011;10675;47.976;7.824;2024-01-15T05:19:24;20.70;;;8.67;;
21032;SDS011;10675;47.976;7.824;2024-01-15T05:21:50;20.27;;;9.03;;
21032;SDS011;10675;47.976;7.824;2024-01-15T05:24:15;19.87;;;8.87;;
21032;SDS011;10675;47.976;7.824;2024-01-15T05:26:41;17.57;;;8.17;;
21032;SDS011;10675;47.976;7.824;2024-01-15T05:29:06;18.43;;;7.90;;
21032;SDS011;10675;47.976;7.824;2024-01-15T05:31:32;17.90;;;8.17;;
21032;SDS011;10675;47.976;7.824;2024-01-15T05:33:57;19.33;;;8.17;;
21032;SDS011;10675;47.976;7.824;2024-01-15T05:36:23;18.23;;;8.10;;
21032;SDS011;10675;47.976;7.824;2024-01-15T05:38:48;20.13;;;8.73;;
21032;SDS011;10675;47.976;7.824;2024-01-15T05:41:14;17.80;;;7.13;;
21032;SDS011;10675;47.976;7.824;2024-01-15T05:43:40;20.00;;;6.90;;
21032;SDS011;10675;47.976;7.824;2024-01-15T05:46:05;22.83;;;9.00;;
21032;SDS011;10675;47.976;7.824;2024-01-15T05:48:31;20.23;;;9.10;;
21032;SDS011;10675;47.976;7.824;2024-01-15T05:50:57;16.33;;;8.17;;
21032;SDS011;10675;47.976;7.824;2024-01-15T05:53:22;19.60;;;7.97;;
21032;SDS011;10675;47.976;7.824;2024-01-15T05:55:48;21.07;;;7.40;;
21032;SDS011;10675;47.976;7.824;2024-01-15T05:58:13;17.33;;;7.53;;
21032;SDS011;10675;47.976;7.824;2024-01-15T06:00:39;23.53;;;8.73;;
21032;SDS011;10675;47.976;7.824;2024-01-15T06:03:04;17.50;;;7.60;;
21032;SDS011;10675;47.976;7.824;2024-01-15T06:05:30;20.10;;;7.43;;
21032;SDS011;10675;47.976;7.824;2024-01-15T06:07:55;19.47;;;7.33;;
21032;SDS011;10675;47.976;7.824;2024-01-15T06:10:21;16.27;;;7.13;;
21032;SDS011;10675;47.976;7.824;2024-01-15T06:12:46;15.03;;;6.80;;
21032;SDS011;10675;47.976;7.824;2024-01-15T06:15:12;18.70;;;7.83;;
21032;SDS011;10675;47.976;7.824;2024-01-15T06:17:38;15.60;;;6.70;;
21032;SDS011;10675;47.976;7.824;2024-01-15T06:20:03;15.47;;;7.37;;
21032;SDS011;10675;47.976;7.824;2024-01-15T06:22:29;15.27;;;6.60;;
21032;SDS011;10675;47.976;7.824;2024-01-15T06:24:55;18.23;;;7.63;;
21032;SDS011;10675;47.976;7.824;2024-01-15T06:27:21;16.90;;;7.80;;
21032;SDS011;10675;47.976;7.824;2024-01-15T06:29:46;18.63;;;6.67;;
21032;SDS011;10675;47.976;7.824;2024-01-15T06:32:12;15.93;;;6.30;;
21032;SDS011;10675;47.976;7.824;2024-01-15T06:34:38;13.00;;;6.60;;
21032;SDS011;10675;47.976;7.824;2024-01-15T06:37:04;15.17;;;6.13;;
21032;SDS011;10675;47.976;7.824;2024-01-15T06:39:30;14.50;;;5.73;;
21032;SDS011;10675;47.976;7.824;2024-01-15T06:41:55;11.63;;;6.47;;
21032;SDS011;10675;47.976;7.824;2024-01-15T06:44:21;17.10;;;7.43;;
21032;SDS011;10675;47.976;7.824;2024-01-15T06:46:46;11.23;;;5.50;;
21032;SDS011;10675;47.976;7.824;2024-01-15T06:49:12;18.53;;;6.30;;
21032;SDS011;10675;47.976;7.824;2024-01-15T06:51:38;15.47;;;6.00;;
21032;SDS011;10675;47.976;7.824;2024-01-15T06:54:04;18.10;;;6.77;;
21032;SDS011;10675;47.976;7.824;2024-01-15T06:56:30;20.70;;;6.87;;
21032;SDS011;10675;47.976;7.824;2024-01-15T06:58:57;14.93;;;6.40;;
21032;SDS011;10675;47.976;7.824;2024-01-15T07:01:23;11.60;;;6.13;;
21032;SDS011;10675;47.976;7.824;2024-01-15T07:03:48;11.93;;;6.30;;
21032;SDS011;10675;47.976;7.824;2024-01-15T07:06:14;14.70;;;6.27;;
21032;SDS011;10675;47.976;7.824;2024-01-15T07:08:39;14.43;;;5.80;;
21032;SDS011;10675;47.976;7.824;2024-01-15T07:11:06;12.37;;;5.57;;
21032;SDS011;10675;47.976;7.824;2024-01-15T07:13:32;14.73;;;6.43;;
21032;SDS011;10675;47.976;7.824;2024-01-15T07:15:58;15.77;;;6.37;;
21032;SDS011;10675;47.976;7.824;2024-01-15T07:18:24;11.37;;;5.57;;
21032;SDS011;10675;47.976;7.824;2024-01-15T07:20:50;17.47;;;5.97;;
21032;SDS011;10675;47.976;7.824;2024-01-15T07:23:16;14.30;;;5.10;;
21032;SDS011;10675;47.976;7.824;2024-01-15T07:25:42;20.03;;;6.43;;
21032;SDS011;10675;47.976;7.824;2024-01-15T07:28:08;15.20;;;5.03;;
21032;SDS011;10675;47.976;7.824;2024-01-15T07:30:33;12.70;;;6.00;;
21032;SDS011;10675;47.976;7.824;2024-01-15T07:32:59;9.40;;;5.07;;
21032;SDS011;10675;47.976;7.824;2024-01-15T07:35:24;10.77;;;4.63;;
21032;SDS011;10675;47.976;7.824;2024-01-15T07:37:50;6.60;;;3.57;;
21032;SDS011;10675;47.976;7.824;2024-01-15T07:40:15;9.63;;;4.77;;
21032;SDS011;10675;47.976;7.824;2024-01-15T07:42:41;8.00;;;3.73;;
21032;SDS011;10675;47.976;7.824;2024-01-15T07:45:07;10.80;;;3.47;;
21032;SDS011;10675;47.976;7.824;2024-01-15T07:47:33;8.00;;;3.23;;
21032;SDS011;10675;47.976;7.824;2024-01-15T07:49:59;6.60;;;3.00;;
21032;SDS011;10675;47.976;7.824;2024-01-15T07:52:25;6.67;;;3.40;;
21032;SDS011;10675;47.976;7.824;2024-01-15T07:54:50;6.73;;;2.87;;
21032;SDS011;10675;47.976;7.824;2024-01-15T07:57:16;5.73;;;2.80;;
21032;SDS011;10675;47.976;7.824;2024-01-15T07:59:41;6.10;;;2.73;;
21032;SDS011;10675;47.976;7.824;2024-01-15T08:02:07;5.83;;;2.33;;
21032;SDS011;10675;47.976;7.824;2024-01-15T08:04:32;3.40;;;2.27;;
21032;SDS011;10675;47.976;7.824;2024-01-15T08:06:58;5.33;;;2.60;;
21032;SDS011;10675;47.976;7.824;2024-01-15T08:09:24;2.40;;;2.07;;
21032;SDS011;10675;47.976;7.824;2024-01-15T08:11:49;2.80;;;1.73;;
21032;SDS011;10675;47.976;7.824;2024-01-15T08:14:15;2.43;;;1.70;;
21032;SDS011;10675;47.976;7.824;2024-01-15T08:16:40;2.63;;;2.10;;
21032;SDS011;10675;47.976;7.824;2024-01-15T08:19:06;3.43;;;1.80;;
21032;SDS011;10675;47.976;7.824;2024-01-15T08:21:31;5.73;;;1.70;;
21032;SDS011;10675;47.976;7.824;2024-01-15T08:23:57;3.90;;;1.87;;
21032;SDS011;10675;47.976;7.824;2024-01-15T08:26:29;2.13;;;1.47;;
21032;SDS011;10675;47.976;7.824;2024-01-15T08:28:55;3.40;;;1.80;;
21032;SDS011;10675;47.976;7.824;2024-01-15T08:31:21;3.87;;;1.80;;
21032;SDS011;10675;47.976;7.824;2024-01-15T08:33:47;3.07;;;1.60;;
21032;SDS011;10675;47.976;7.824;2024-01-15T08:36:12;3.70;;;1.83;;
21032;SDS011;10675;47.976;7.824;2024-01-15T08:38:38;2.83;;;2.17;;
21032;SDS011;10675;47.976;7.824;2024-01-15T08:41:04;4.13;;;2.10;;
21032;SDS011;10675;47.976;7.824;2024-01-15T08:43:29;2.63;;;1.70;;
21032;SDS011;10675;47.976;7.824;2024-01-15T08:45:58;3.60;;;2.00;;
21032;SDS011;10675;47.976;7.824;2024-01-15T08:48:24;2.73;;;1.70;;
21032;SDS011;10675;47.976;7.824;2024-01-15T08:50:52;2.70;;;1.90;;
21032;SDS011;10675;47.976;7.824;2024-01-15T08:53:18;2.53;;;1.47;;
21032;SDS011;10675;47.976;7.824;2024-01-15T08:55:44;2.03;;;1.47;;
21032;SDS011;10675;47.976;7.824;2024-01-15T08:58:09;1.90;;;1.60;;
21032;SDS011;10675;47.976;7.824;2024-01-15T09:00:35;1.53;;;1.33;;
21032;SDS011;10675;47.976;7.824;2024-01-15T09:03:00;3.13;;;1.67;;
21032;SDS011;10675;47.976;7.824;2024-01-15T09:05:27;3.00;;;1.93;;
21032;SDS011;10675;47.976;7.824;2024-01-15T09:07:52;3.57;;;2.00;;
21032;SDS011;10675;47.976;7.824;2024-01-15T09:10:18;2.67;;;1.70;;
21032;SDS011;10675;47.976;7.824;2024-01-15T09:12:45;2.97;;;2.40;;
21032;SDS011;10675;47.976;7.824;2024-01-15T09:15:10;3.20;;;1.97;;
21032;SDS011;10675;47.976;7.824;2024-01-15T09:17:36;3.03;;;1.97;;
21032;SDS011;10675;47.976;7.824;2024-01-15T09:20:01;3.87;;;2.13;;
21032;SDS011;10675;47.976;7.824;2024-01-15T09:22:29;3.97;;;1.83;;
21032;SDS011;10675;47.976;7.824;2024-01-15T09:24:55;5.50;;;1.60;;
21032;SDS011;10675;47.976;7.824;2024-01-15T09:27:20;3.60;;;2.10;;
21032;SDS011;10675;47.976;7.824;2024-01-15T09:29:46;5.23;;;2.10;;
21032;SDS011;10675;47.976;7.824;2024-01-15T09:32:12;3.77;;;2.27;;
21032;SDS011;10675;47.976;7.824;2024-01-15T09:34:37;3.83;;;2.20;;
21032;SDS011;10675;47.976;7.824;2024-01-15T09:37:03;1.70;;;1.40;;
21032;SDS011;10675;47.976;7.824;2024-01-15T09:39:29;4.50;;;2.07;;
21032;SDS011;10675;47.976;7.824;2024-01-15T09:41:55;4.43;;;2.07;;
21032;SDS011;10675;47.976;7.824;2024-01-15T09:44:22;5.33;;;2.43;;
21032;SDS011;10675;47.976;7.824;2024-01-15T09:46:48;5.47;;;2.37;;
21032;SDS011;10675;47.976;7.824;2024-01-15T09:49:16;2.87;;;2.10;;
21032;SDS011;10675;47.976;7.824;2024-01-15T09:51:43;4.90;;;2.43;;
21032;SDS011;10675;47.976;7.824;2024-01-15T09:54:09;6.40;;;2.57;;
21032;SDS011;10675;47.976;7.824;2024-01-15T09:56:35;3.07;;;2.00;;
21032;SDS011;10675;47.976;7.824;2024-01-15T09:59:01;8.20;;;2.90;;
21032;SDS011;10675;47.976;7.824;2024-01-15T10:01:29;4.90;;;2.73;;
21032;SDS011;10675;47.976;7.824;2024-01-15T10:03:56;4.90;;;2.50;;
21032;SDS011;10675;47.976;7.824;2024-01-15T10:06:21;5.73;;;2.73;;
21032;SDS011;10675;47.976;7.824;2024-01-15T10:08:48;6.37;;;3.43;;
21032;SDS011;10675;47.976;7.824;2024-01-15T10:11:15;4.43;;;2.57;;
21032;SDS011;10675;47.976;7.824;2024-01-15T10:13:41;7.07;;;3.10;;
21032;SDS011;10675;47.976;7.824;2024-01-15T10:16:11;7.10;;;3.03;;
21032;SDS011;10675;47.976;7.824;2024-01-15T10:18:36;4.53;;;2.80;;
21032;SDS011;10675;47.976;7.824;2024-01-15T10:21:04;6.23;;;3.37;;
21032;SDS011;10675;47.976;7.824;2024-01-15T10:23:32;7.33;;;3.20;;
21032;SDS011;10675;47.976;7.824;2024-01-15T10:25:58;8.23;;;4.03;;
21032;SDS011;10675;47.976;7.824;2024-01-15T10:28:25;7.33;;;3.43;;
21032;SDS011;10675;47.976;7.824;2024-01-15T10:30:52;7.00;;;3.70;;
21032;SDS011;10675;47.976;7.824;2024-01-15T10:33:21;6.17;;;3.73;;
21032;SDS011;10675;47.976;7.824;2024-01-15T10:35:50;7.10;;;3.63;;
21032;SDS011;10675;47.976;7.824;2024-01-15T10:38:25;8.87;;;3.57;;
21032;SDS011;10675;47.976;7.824;2024-01-15T10:40:52;8.93;;;4.00;;
21032;SDS011;10675;47.976;7.824;2024-01-15T10:43:18;7.10;;;4.67;;
21032;SDS011;10675;47.976;7.824;2024-01-15T10:45:47;9.53;;;4.77;;
21032;SDS011;10675;47.976;7.824;2024-01-15T10:48:13;12.03;;;5.17;;
21032;SDS011;10675;47.976;7.824;2024-01-15T10:50:41;10.00;;;4.60;;
21032;SDS011;10675;47.976;7.824;2024-01-15T10:53:07;10.97;;;4.20;;
21032;SDS011;10675;47.976;7.824;2024-01-15T10:55:35;11.50;;;4.67;;
21032;SDS011;10675;47.976;7.824;2024-01-15T10:58:04;8.40;;;4.60;;
21032;SDS011;10675;47.976;7.824;2024-01-15T11:00:32;11.13;;;5.33;;
21032;SDS011;10675;47.976;7.824;2024-01-15T11:03:02;11.30;;;5.33;;
21032;SDS011;10675;47.976;7.824;2024-01-15T11:05:32;12.60;;;5.53;;
21032;SDS011;10675;47.976;7.824;2024-01-15T11:08:08;10.33;;;5.37;;
21032;SDS011;10675;47.976;7.824;2024-01-15T11:13:21;13.93;;;5.87;;
21032;SDS011;10675;47.976;7.824;2024-01-15T11:15:57;7.60;;;4.47;;
21032;SDS011;10675;47.976;7.824;2024-01-15T11:18:31;10.47;;;5.43;;
21032;SDS011;10675;47.976;7.824;2024-01-15T11:23:45;10.17;;;5.50;;
21032;SDS011;10675;47.976;7.824;2024-01-15T11:26:31;12.67;;;5.07;;
21032;SDS011;10675;47.976;7.824;2024-01-15T11:29:01;11.07;;;5.47;;
21032;SDS011;10675;47.976;7.824;2024-01-15T11:34:06;11.47;;;5.57;;
21032;SDS011;10675;47.976;7.824;2024-01-15T11:41:51;13.60;;;5.40;;
21032;SDS011;10675;47.976;7.824;2024-01-15T11:44:19;13.17;;;5.30;;
21032;SDS011;10675;47.976;7.824;2024-01-15T11:46:46;12.57;;;6.53;;
21032;SDS011;10675;47.976;7.824;2024-01-15T11:52:12;15.43;;;7.75;;
21032;SDS011;10675;47.976;7.824;2024-01-15T11:54:49;13.83;;;6.57;;
21032;SDS011;10675;47.976;7.824;2024-01-15T11:57:27;9.93;;;5.87;;
21032;SDS011;10675;47.976;7.824;2024-01-15T12:00:02;11.77;;;5.03;;
21032;SDS011;10675;47.976;7.824;2024-01-15T12:02:29;12.00;;;6.17;;
21032;SDS011;10675;47.976;7.824;2024-01-15T12:04:55;11.03;;;6.03;;
21032;SDS011;10675;47.976;7.824;2024-01-15T12:07:20;11.93;;;5.40;;
21032;SDS011;10675;47.976;7.824;2024-01-15T12:09:46;12.50;;;5.33;;
21032;SDS011;10675;47.976;7.824;2024-01-15T12:12:13;13.23;;;5.63;;
21032;SDS011;10675;47.976;7.824;2024-01-15T12:14:49;13.30;;;6.10;;
21032;SDS011;10675;47.976;7.824;2024-01-15T12:17:15;11.80;;;5.20;;
21032;SDS011;10675;47.976;7.824;2024-01-15T12:19:41;11.73;;;5.60;;
21032;SDS011;10675;47.976;7.824;2024-01-15T12:22:08;9.57;;;5.70;;
21032;SDS011;10675;47.976;7.824;2024-01-15T12:24:34;9.40;;;4.87;;
21032;SDS011;10675;47.976;7.824;2024-01-15T12:27:00;10.00;;;5.20;;
21032;SDS011;10675;47.976;7.824;2024-01-15T12:29:26;12.30;;;5.47;;
21032;SDS011;10675;47.976;7.824;2024-01-15T12:31:52;11.57;;;5.00;;
21032;SDS011;10675;47.976;7.824;2024-01-15T12:34:18;11.53;;;5.43;;
21032;SDS011;10675;47.976;7.824;2024-01-15T12:36:46;7.33;;;4.47;;
21032;SDS011;10675;47.976;7.824;2024-01-15T12:39:12;10.07;;;4.60;;
21032;SDS011;10675;47.976;7.824;2024-01-15T12:41:38;8.43;;;4.33;;
21032;SDS011;10675;47.976;7.824;2024-01-15T12:44:04;11.70;;;5.00;;
21032;SDS011;10675;47.976;7.824;2024-01-15T12:46:30;7.23;;;3.67;;
21032;SDS011;10675;47.976;7.824;2024-01-15T12:48:57;8.50;;;5.20;;
21032;SDS011;10675;47.976;7.824;2024-01-15T12:51:26;8.03;;;4.57;;
21032;SDS011;10675;47.976;7.824;2024-01-15T12:53:52;9.30;;;4.70;;
21032;SDS011;10675;47.976;7.824;2024-01-15T12:56:18;10.10;;;5.53;;
21032;SDS011;10675;47.976;7.824;2024-01-15T12:58:43;10.03;;;4.10;;
21032;SDS011;10675;47.976;7.824;2024-01-15T13:01:09;8.83;;;4.23;;
21032;SDS011;10675;47.976;7.824;2024-01-15T13:03:35;8.93;;;5.20;;
21032;SDS011;10675;47.976;7.824;2024-01-15T13:06:00;11.20;;;4.63;;
21032;SDS011;10675;47.976;7.824;2024-01-15T13:08:26;10.17;;;4.77;;
21032;SDS011;10675;47.976;7.824;2024-01-15T13:10:54;11.20;;;5.07;;
21032;SDS011;10675;47.976;7.824;2024-01-15T13:13:21;12.80;;;5.33;;
21032;SDS011;10675;47.976;7.824;2024-01-15T13:15:47;12.30;;;5.97;;
21032;SDS011;10675;47.976;7.824;2024-01-15T13:18:13;10.67;;;4.47;;
21032;SDS011;10675;47.976;7.824;2024-01-15T13:20:38;11.03;;;4.80;;
21032;SDS011;10675;47.976;7.824;2024-01-15T13:23:04;11.57;;;5.10;;
21032;SDS011;10675;47.976;7.824;2024-01-15T13:25:29;8.83;;;5.47;;
21032;SDS011;10675;47.976;7.824;2024-01-15T13:27:55;13.60;;;4.97;;
21032;SDS011;10675;47.976;7.824;2024-01-15T13:30:21;12.53;;;5.10;;
21032;SDS011;10675;47.976;7.824;2024-01-15T13:32:46;12.00;;;5.43;;
21032;SDS011;10675;47.976;7.824;2024-01-15T13:35:12;10.70;;;6.03;;
21032;SDS011;10675;47.976;7.824;2024-01-15T13:37:38;9.53;;;5.20;;
21032;SDS011;10675;47.976;7.824;2024-01-15T13:40:06;11.03;;;5.23;;
21032;SDS011;10675;47.976;7.824;2024-01-15T13:42:34;10.97;;;5.03;;
21032;SDS011;10675;47.976;7.824;2024-01-15T13:45:04;14.00;;;5.80;;
21032;SDS011;10675;47.976;7.824;2024-01-15T13:47:31;10.90;;;6.37;;
21032;SDS011;10675;47.976;7.824;2024-01-15T13:49:57;12.17;;;5.47;;
21032;SDS011;10675;47.976;7.824;2024-01-15T13:52:23;9.03;;;4.83;;
21032;SDS011;10675;47.976;7.824;2024-01-15T13:54:48;8.40;;;4.67;;
21032;SDS011;10675;47.976;7.824;2024-01-15T13:57:14;7.77;;;4.93;;
21032;SDS011;10675;47.976;7.824;2024-01-15T13:59:39;13.83;;;5.73;;
21032;SDS011;10675;47.976;7.824;2024-01-15T14:02:05;10.47;;;5.33;;
21032;SDS011;10675;47.976;7.824;2024-01-15T14:04:30;14.37;;;6.20;;
21032;SDS011;10675;47.976;7.824;2024-01-15T14:06:56;11.57;;;6.07;;
21032;SDS011;10675;47.976;7.824;2024-01-15T14:09:21;11.53;;;5.13;;
21032;SDS011;10675;47.976;7.824;2024-01-15T14:11:47;12.27;;;5.67;;
21032;SDS011;10675;47.976;7.824;2024-01-15T14:14:13;12.93;;;6.57;;
21032;SDS011;10675;47.976;7.824;2024-01-15T14:16:39;13.03;;;6.00;;
21032;SDS011;10675;47.976;7.824;2024-01-15T14:19:04;13.87;;;6.50;;
21032;SDS011;10675;47.976;7.824;2024-01-15T14:21:34;11.77;;;6.23;;
21032;SDS011;10675;47.976;7.824;2024-01-15T14:24:00;14.60;;;6.47;;
21032;SDS011;10675;47.976;7.824;2024-01-15T14:26:26;14.53;;;6.87;;
21032;SDS011;10675;47.976;7.824;2024-01-15T14:28:51;11.07;;;5.23;;
21032;SDS011;10675;47.976;7.824;2024-01-15T14:31:17;14.33;;;7.43;;
21032;SDS011;10675;47.976;7.824;2024-01-15T14:33:42;8.47;;;5.80;;
21032;SDS011;10675;47.976;7.824;2024-01-15T14:36:08;11.47;;;5.27;;
21032;SDS011;10675;47.976;7.824;2024-01-15T14:38:33;9.87;;;5.37;;
21032;SDS011;10675;47.976;7.824;2024-01-15T14:40:59;8.67;;;5.33;;
21032;SDS011;10675;47.976;7.824;2024-01-15T14:43:25;13.40;;;5.80;;
21032;SDS011;10675;47.976;7.824;2024-01-15T14:45:51;11.57;;;6.07;;
21032;SDS011;10675;47.976;7.824;2024-01-15T14:48:16;12.50;;;6.33;;